Time;durP1;ratioP1;P1;durP2;ratioP2;P2;SDS_P1;SDS_P2;PMS_P1;PMS_P2;Temp;Humidity;BMP_temperature;BMP_pressure;BME280_temperature;BME280_humidity;BME280_pressure;Samples;Min_cycle;Max_cycle;Signal;HPM_P1;HPM_P2
2024/02/05 00:01:03;;;;;;;7.63;2.90;;;5.50;99.90;;;;;;5053364;28;20666;-84
2024/02/05 00:03:51;;;;;;;9.93;2.97;;;5.50;99.90;;;;;;5052815;28;20258;-84
2024/02/05 00:06:38;;;;;;;7.23;3.00;;;5.50;99.90;;;;;;5054221;28;20589;-83
2024/02/05 00:09:26;;;;;;;8.67;3.00;;;5.50;99.90;;;;;;5052751;28;20674;-84
2024/02/05 00:12:14;;;;;;;8.07;3.13;;;5.40;99.90;;;;;;5052325;28;20218;-84
2024/02/05 00:15:02;;;;;;;7.60;2.97;;;5.40;99.90;;;;;;5052185;28;20208;-84
2024/02/05 00:17:49;;;;;;;8.87;3.17;;;5.40;99.90;;;;;;5052427;28;20225;-84
2024/02/05 00:20:37;;;;;;;8.53;3.60;;;5.40;99.90;;;;;;5052311;28;20197;-83
2024/02/05 00:23:24;;;;;;;10.13;3.30;;;5.40;99.90;;;;;;5053136;28;20199;-83
2024/02/05 00:26:12;;;;;;;8.40;3.00;;;5.40;99.90;;;;;;5052774;28;20311;-84
2024/02/05 00:29:00;;;;;;;10.27;3.20;;;5.40;99.90;;;;;;5039501;28;20203;-83
2024/02/05 00:31:48;;;;;;;8.20;3.33;;;5.40;99.90;;;;;;5050955;28;20229;-84
2024/02/05 00:34:35;;;;;;;7.77;3.53;;;5.40;99.90;;;;;;5055044;28;20267;-85
2024/02/05 00:37:24;;;;;;;7.00;3.53;;;5.40;99.90;;;;;;5052605;28;20663;-84
2024/02/05 00:40:12;;;;;;;8.37;3.40;;;5.40;99.90;;;;;;5052357;28;20198;-86
2024/02/05 00:43:00;;;;;;;9.87;3.50;;;5.40;99.90;;;;;;5052097;28;20241;-86
2024/02/05 00:45:47;;;;;;;12.00;3.80;;;5.40;99.90;;;;;;5052188;28;20694;-87
2024/02/05 00:48:35;;;;;;;9.53;3.20;;;5.40;99.90;;;;;;5054350;28;20721;-86
2024/02/05 00:51:23;;;;;;;7.27;3.30;;;5.40;99.90;;;;;;5038861;28;20196;-86
2024/02/05 00:54:11;;;;;;;7.00;3.23;;;5.40;99.90;;;;;;5053256;28;20199;-85
2024/02/05 00:56:58;;;;;;;9.90;3.43;;;5.40;99.90;;;;;;5037980;28;20214;-86
2024/02/05 00:59:46;;;;;;;8.37;3.50;;;5.40;99.90;;;;;;5052410;28;20346;-87
2024/02/05 01:02:35;;;;;;;7.30;3.37;;;5.40;99.90;;;;;;5038450;28;20248;-86
2024/02/05 01:05:23;;;;;;;7.50;3.47;;;5.40;99.90;;;;;;5052216;28;20235;-86
2024/02/05 01:08:11;;;;;;;8.10;3.60;;;5.50;99.90;;;;;;5052912;28;20197;-86
2024/02/05 01:10:59;;;;;;;6.57;3.33;;;5.50;99.90;;;;;;5037460;28;20282;-86
2024/02/05 01:13:46;;;;;;;7.93;3.17;;;5.60;99.90;;;;;;5051580;28;20801;-86
2024/02/05 01:16:33;;;;;;;8.17;3.00;;;5.60;99.90;;;;;;5052880;28;20199;-86
2024/02/05 01:19:22;;;;;;;5.47;2.83;;;5.60;99.90;;;;;;5052749;28;20193;-86
2024/02/05 01:22:09;;;;;;;8.47;3.00;;;5.60;99.90;;;;;;5037463;28;20604;-86
2024/02/05 01:24:57;;;;;;;9.67;3.07;;;5.60;99.90;;;;;;5038429;28;20226;-85
2024/02/05 01:27:44;;;;;;;5.73;2.90;;;5.70;99.90;;;;;;5037944;28;20220;-84
2024/02/05 01:30:32;;;;;;;4.40;3.00;;;5.70;99.90;;;;;;5036732;28;20199;-85
2024/02/05 01:33:19;;;;;;;6.60;3.00;;;5.80;99.90;;;;;;5037565;28;20297;-84
2024/02/05 01:36:07;;;;;;;6.80;2.87;;;5.80;99.90;;;;;;5038596;28;20197;-84
2024/02/05 01:38:57;;;;;;;7.43;2.97;;;5.80;99.90;;;;;;5044395;28;20324;-83
2024/02/05 01:41:45;;;;;;;6.63;2.90;;;5.90;99.90;;;;;;5050555;28;20239;-84
2024/02/05 01:44:32;;;;;;;6.67;3.47;;;5.80;99.90;;;;;;5051333;28;20295;-84
2024/02/05 01:47:20;;;;;;;5.10;2.87;;;5.90;99.90;;;;;;5039300;28;20671;-84
2024/02/05 01:50:10;;;;;;;5.33;2.87;;;5.90;99.90;;;;;;5056026;28;20242;-85
2024/02/05 01:52:59;;;;;;;4.20;2.50;;;5.90;99.90;;;;;;5054514;28;20350;-85
2024/02/05 01:55:50;;;;;;;6.87;2.73;;;5.90;99.90;;;;;;5055535;28;20199;-85
2024/02/05 01:58:38;;;;;;;5.27;3.10;;;5.90;99.90;;;;;;5041129;28;20335;-84
2024/02/05 02:01:32;;;;;;;4.03;2.40;;;5.90;99.90;;;;;;5039804;28;20705;-85
2024/02/05 02:04:20;;;;;;;5.23;2.70;;;5.90;99.90;;;;;;5041122;28;20205;-86
2024/02/05 02:07:11;;;;;;;7.17;2.90;;;6.00;99.90;;;;;;5055102;28;20360;-86
2024/02/05 02:10:00;;;;;;;7.43;2.80;;;6.00;99.90;;;;;;5040637;28;20208;-85
2024/02/05 02:12:47;;;;;;;5.30;2.50;;;6.00;99.90;;;;;;5027531;28;20714;-87
2024/02/05 02:15:36;;;;;;;3.97;2.53;;;6.00;99.90;;;;;;5056051;28;20688;-86
2024/02/05 02:18:26;;;;;;;5.80;2.30;;;6.00;99.90;;;;;;5054487;28;20674;-85
2024/02/05 02:21:15;;;;;;;3.33;2.30;;;6.00;99.90;;;;;;5054819;28;20197;-86
2024/02/05 02:24:05;;;;;;;4.60;2.33;;;6.10;99.90;;;;;;5054585;28;20197;-86
2024/02/05 02:26:52;;;;;;;3.60;2.37;;;6.10;99.90;;;;;;5039916;28;20223;-86
2024/02/05 02:29:39;;;;;;;4.07;2.53;;;6.10;99.90;;;;;;5054359;28;20293;-88
2024/02/05 02:32:37;;;;;;;5.27;2.60;;;6.10;99.90;;;;;;5055013;28;20676;-86
2024/02/05 02:35:32;;;;;;;8.70;2.70;;;6.10;99.90;;;;;;5054672;28;20192;-86
2024/02/05 02:38:28;;;;;;;3.70;2.37;;;6.00;99.90;;;;;;5038885;28;20185;-86
2024/02/05 02:41:21;;;;;;;4.97;2.40;;;6.00;99.90;;;;;;5039829;28;20198;-86
2024/02/05 02:44:10;;;;;;;6.53;2.80;;;6.00;99.90;;;;;;5039997;28;20709;-86
2024/02/05 02:47:01;;;;;;;5.30;2.60;;;5.90;99.90;;;;;;5041019;28;20193;-86
2024/02/05 02:49:48;;;;;;;3.73;2.57;;;5.90;99.90;;;;;;5055474;28;20202;-86
2024/02/05 02:52:36;;;;;;;3.60;2.33;;;6.00;99.90;;;;;;5054428;28;20199;-86
2024/02/05 02:55:24;;;;;;;3.67;2.50;;;5.90;99.90;;;;;;5054736;28;20332;-86
2024/02/05 02:58:12;;;;;;;3.30;2.33;;;5.90;99.90;;;;;;5052786;28;20215;-87
2024/02/05 03:00:59;;;;;;;4.63;2.30;;;5.90;99.90;;;;;;5040787;28;20201;-86
2024/02/05 03:03:47;;;;;;;5.43;2.70;;;5.90;99.90;;;;;;5054260;28;20663;-86
2024/02/05 03:06:35;;;;;;;4.40;2.23;;;5.90;99.90;;;;;;5040697;28;20245;-87
2024/02/05 03:09:23;;;;;;;3.10;2.50;;;5.90;99.90;;;;;;5055192;28;20683;-86
2024/02/05 03:12:10;;;;;;;2.60;2.40;;;5.90;99.90;;;;;;5055671;28;20698;-86
2024/02/05 03:14:59;;;;;;;5.13;2.47;;;5.90;99.90;;;;;;5055836;28;20278;-86
2024/02/05 03:17:46;;;;;;;4.27;2.93;;;5.80;99.90;;;;;;5054278;28;20556;-86
2024/02/05 03:20:35;;;;;;;4.10;2.50;;;5.80;99.90;;;;;;5052838;28;20577;-87
2024/02/05 03:23:23;;;;;;;3.33;2.57;;;5.80;99.90;;;;;;5053252;28;20203;-86
2024/02/05 03:26:10;;;;;;;4.93;2.50;;;5.80;99.90;;;;;;5054532;28;20303;-86
2024/02/05 03:28:58;;;;;;;4.07;2.30;;;5.80;99.90;;;;;;5054355;28;20573;-87
2024/02/05 03:31:45;;;;;;;3.30;2.30;;;5.80;99.90;;;;;;5057057;28;20224;-86
2024/02/05 03:34:32;;;;;;;3.70;2.27;;;5.80;99.90;;;;;;5058320;28;20279;-85
2024/02/05 03:37:20;;;;;;;3.93;2.60;;;5.80;99.90;;;;;;5056211;28;20278;-86
2024/02/05 03:40:08;;;;;;;3.50;2.63;;;5.80;99.90;;;;;;5054376;28;20560;-86
2024/02/05 03:42:56;;;;;;;4.40;2.57;;;5.80;99.90;;;;;;5052474;28;20215;-87
2024/02/05 03:45:43;;;;;;;3.70;2.57;;;5.80;99.90;;;;;;5053709;28;20218;-86
2024/02/05 03:48:31;;;;;;;3.87;2.77;;;5.80;99.90;;;;;;5048139;28;20647;-87
2024/02/05 03:51:18;;;;;;;3.20;2.23;;;5.80;99.90;;;;;;5058171;28;20201;-87
2024/02/05 03:54:06;;;;;;;5.20;2.70;;;5.80;99.90;;;;;;5058585;28;20277;-86
2024/02/05 03:56:53;;;;;;;3.80;2.40;;;5.90;99.90;;;;;;5072835;28;20225;-87
2024/02/05 03:59:41;;;;;;;4.53;2.93;;;5.90;99.90;;;;;;5046466;28;20241;-87
2024/02/05 04:02:29;;;;;;;4.07;2.43;;;5.90;99.90;;;;;;5058344;28;20224;-85
2024/02/05 04:05:17;;;;;;;4.50;3.00;;;5.80;99.90;;;;;;5074713;28;20240;-86
2024/02/05 04:08:05;;;;;;;4.87;2.80;;;5.90;99.90;;;;;;5059270;28;20314;-86
2024/02/05 04:10:56;;;;;;;3.20;2.57;;;5.90;99.90;;;;;;5072783;28;20199;-86
2024/02/05 04:13:43;;;;;;;4.27;2.90;;;5.90;99.90;;;;;;5059520;28;20208;-86
2024/02/05 04:16:30;;;;;;;5.07;2.70;;;5.90;99.90;;;;;;5072282;28;20316;-86
2024/02/05 04:19:18;;;;;;;3.70;3.10;;;5.90;99.90;;;;;;5073156;28;20201;-87
2024/02/05 04:22:05;;;;;;;5.00;2.80;;;5.90;99.90;;;;;;5058133;28;20205;-87
2024/02/05 04:24:53;;;;;;;3.83;2.77;;;5.90;99.90;;;;;;5072135;28;20205;-86
2024/02/05 04:27:40;;;;;;;4.43;3.00;;;5.80;99.90;;;;;;5072660;28;20291;-87
2024/02/05 04:30:29;;;;;;;4.37;3.17;;;5.90;99.90;;;;;;5073053;28;20554;-86
2024/02/05 04:33:16;;;;;;;4.87;3.13;;;5.90;99.90;;;;;;5058003;28;20194;-86
2024/02/05 04:36:14;;;;;;;5.13;3.33;;;5.90;99.90;;;;;;5073669;28;20194;-87
2024/02/05 04:39:04;;;;;;;5.93;3.30;;;5.90;99.90;;;;;;5057444;28;20196;-86
2024/02/05 04:41:51;;;;;;;3.60;3.10;;;5.90;99.90;;;;;;5058720;28;20276;-87
2024/02/05 04:44:39;;;;;;;5.13;3.20;;;5.90;99.90;;;;;;5073640;28;20196;-87
2024/02/05 04:47:26;;;;;;;4.37;2.90;;;6.00;99.90;;;;;;5073215;28;20187;-86
2024/02/05 04:50:14;;;;;;;4.20;2.67;;;6.00;99.90;;;;;;5058154;28;20308;-86
2024/02/05 04:53:01;;;;;;;3.57;2.50;;;6.00;99.90;;;;;;5058557;28;20192;-86
2024/02/05 04:55:49;;;;;;;4.07;2.70;;;6.00;99.90;;;;;;5072139;28;20194;-86
2024/02/05 04:58:37;;;;;;;3.97;2.53;;;6.00;99.90;;;;;;5071420;28;20232;-86
2024/02/05 05:01:24;;;;;;;4.00;2.80;;;6.10;99.90;;;;;;5072121;28;20242;-86
2024/02/05 05:04:11;;;;;;;5.73;2.60;;;6.10;99.90;;;;;;5058328;28;20673;-87
2024/02/05 05:06:59;;;;;;;4.40;2.60;;;6.10;99.90;;;;;;5056658;28;20235;-86
2024/02/05 05:09:47;;;;;;;3.20;2.50;;;6.10;99.90;;;;;;5072368;28;20282;-87
2024/02/05 05:12:35;;;;;;;4.03;3.00;;;6.10;99.90;;;;;;5057705;28;20210;-86
2024/02/05 05:15:22;;;;;;;2.70;2.50;;;6.30;99.90;;;;;;5058163;28;20198;-86
2024/02/05 05:18:09;;;;;;;3.30;2.67;;;6.20;99.90;;;;;;5073111;28;20277;-87
2024/02/05 05:20:57;;;;;;;3.13;2.83;;;6.10;99.90;;;;;;5058704;28;20190;-86
2024/02/05 05:23:44;;;;;;;3.43;2.67;;;6.20;99.90;;;;;;5061832;28;20196;-86
2024/02/05 05:26:31;;;;;;;4.40;2.80;;;6.20;99.90;;;;;;5062200;28;20313;-85
2024/02/05 05:29:20;;;;;;;3.23;2.67;;;6.20;99.90;;;;;;5076292;28;20278;-86
2024/02/05 05:32:07;;;;;;;3.27;2.73;;;6.20;99.90;;;;;;5061106;28;20224;-87
2024/02/05 05:34:54;;;;;;;3.47;2.43;;;6.10;99.90;;;;;;5076717;28;20214;-85
2024/02/05 05:37:43;;;;;;;2.83;2.53;;;6.00;99.90;;;;;;5061191;28;20194;-86
2024/02/05 05:40:33;;;;;;;4.67;2.93;;;6.00;99.90;;;;;;5061905;28;20191;-86
2024/02/05 05:43:21;;;;;;;3.00;2.70;;;6.00;99.90;;;;;;5076920;28;20688;-85
2024/02/05 05:46:09;;;;;;;3.67;2.90;;;6.00;99.90;;;;;;5076367;28;20216;-86
2024/02/05 05:48:56;;;;;;;3.03;2.40;;;6.00;99.90;;;;;;5075113;28;20192;-84
2024/02/05 05:51:43;;;;;;;3.20;2.80;;;6.00;99.90;;;;;;5061665;28;20249;-86
2024/02/05 05:54:31;;;;;;;3.80;2.70;;;6.00;99.90;;;;;;5076668;28;20280;-85
2024/02/05 05:57:18;;;;;;;3.30;2.57;;;6.00;99.90;;;;;;5061480;28;20216;-83
2024/02/05 06:00:06;;;;;;;2.87;2.57;;;6.10;99.90;;;;;;5076680;28;20549;-84
2024/02/05 06:02:55;;;;;;;5.10;2.60;;;6.10;99.90;;;;;;5061105;28;20668;-85
2024/02/05 06:05:45;;;;;;;3.20;2.57;;;6.10;99.90;;;;;;5075011;28;20699;-85
2024/02/05 06:08:32;;;;;;;3.67;2.53;;;6.10;99.90;;;;;;5063354;28;20256;-84
2024/02/05 06:11:20;;;;;;;2.50;2.30;;;6.10;99.90;;;;;;5076237;28;20247;-85
2024/02/05 06:14:07;;;;;;;3.40;2.60;;;6.10;99.90;;;;;;5061173;28;20718;-84
2024/02/05 06:16:55;;;;;;;3.10;2.57;;;6.10;99.90;;;;;;5075152;28;20201;-85
2024/02/05 06:19:43;;;;;;;3.33;2.70;;;6.10;99.90;;;;;;5075831;28;20207;-85
2024/02/05 06:22:30;;;;;;;3.33;2.40;;;6.10;99.90;;;;;;5075857;28;20211;-84
2024/02/05 06:25:17;;;;;;;3.57;2.53;;;6.10;99.90;;;;;;5061414;28;20316;-85
2024/02/05 06:28:05;;;;;;;2.50;2.30;;;6.20;99.90;;;;;;5075037;28;20218;-85
2024/02/05 06:30:56;;;;;;;2.50;2.30;;;6.20;99.90;;;;;;5075553;28;20201;-84
2024/02/05 06:33:44;;;;;;;2.50;2.30;;;6.20;99.90;;;;;;5076735;28;20194;-85
2024/02/05 06:36:31;;;;;;;3.57;2.20;;;6.30;99.90;;;;;;5061549;28;20211;-83
2024/02/05 06:39:19;;;;;;;2.77;2.20;;;6.30;99.90;;;;;;5078368;28;20669;-84
2024/02/05 06:42:06;;;;;;;2.40;2.03;;;6.30;99.90;;;;;;5062058;28;20256;-84
2024/02/05 06:44:54;;;;;;;3.60;2.20;;;6.30;99.90;;;;;;5061820;28;20195;-84
2024/02/05 06:47:41;;;;;;;2.70;2.37;;;6.30;99.90;;;;;;5075464;28;20609;-84
2024/02/05 06:50:28;;;;;;;2.87;2.00;;;6.30;99.90;;;;;;5075659;28;20236;-84
2024/02/05 06:53:16;;;;;;;2.70;2.30;;;6.40;99.90;;;;;;5074439;28;20199;-84
2024/02/05 06:56:03;;;;;;;2.00;1.80;;;6.40;99.90;;;;;;5075846;28;20278;-83
2024/02/05 06:58:51;;;;;;;2.77;1.77;;;6.40;99.90;;;;;;5074735;28;20248;-83
2024/02/05 07:01:38;;;;;;;2.93;1.97;;;6.40;99.90;;;;;;5062088;28;20562;-83
2024/02/05 07:04:26;;;;;;;2.00;1.80;;;6.50;99.90;;;;;;5060930;28;20236;-84
2024/02/05 07:07:14;;;;;;;3.23;2.10;;;6.50;99.90;;;;;;5062902;28;20224;-85
2024/02/05 07:10:05;;;;;;;2.40;2.20;;;6.50;99.90;;;;;;5075675;28;20197;-84
2024/02/05 07:12:53;;;;;;;2.63;2.40;;;6.50;99.90;;;;;;5075083;28;20243;-84
2024/02/05 07:15:40;;;;;;;2.23;1.83;;;6.60;99.90;;;;;;5062017;28;20317;-83
2024/02/05 07:18:29;;;;;;;2.63;2.10;;;6.60;99.90;;;;;;5075350;28;20198;-85
2024/02/05 07:21:16;;;;;;;3.27;2.00;;;6.60;99.90;;;;;;5074067;28;20278;-84
2024/02/05 07:24:04;;;;;;;2.93;1.90;;;6.60;99.90;;;;;;5074484;28;20548;-84
2024/02/05 07:26:51;;;;;;;2.47;1.90;;;6.70;99.90;;;;;;5058848;28;20620;-84
2024/02/05 07:29:42;;;;;;;2.07;1.80;;;6.70;99.90;;;;;;5059219;28;20626;-84
2024/02/05 07:32:29;;;;;;;3.10;2.03;;;6.80;99.90;;;;;;5074120;28;20192;-83
2024/02/05 07:35:18;;;;;;;1.90;1.70;;;6.70;99.90;;;;;;5074109;28;20204;-84
2024/02/05 07:38:06;;;;;;;3.03;1.63;;;6.80;99.90;;;;;;5059299;28;20280;-84
2024/02/05 07:40:53;;;;;;;1.53;1.43;;;6.80;99.90;;;;;;5073784;28;20208;-83
2024/02/05 07:43:40;;;;;;;1.47;1.30;;;6.80;99.90;;;;;;5075147;28;20195;-78
2024/02/05 07:46:28;;;;;;;1.60;1.40;;;6.90;99.90;;;;;;5074062;28;20218;-83
2024/02/05 07:49:15;;;;;;;1.80;1.20;;;7.00;99.90;;;;;;5059300;28;20192;-86
2024/02/05 07:52:03;;;;;;;2.20;1.40;;;7.00;99.90;;;;;;5058185;28;20667;-84
2024/02/05 07:54:50;;;;;;;1.93;1.20;;;7.10;99.90;;;;;;5061730;28;20207;-82
2024/02/05 07:57:38;;;;;;;2.53;1.40;;;7.10;99.90;;;;;;5063476;28;20339;-83
2024/02/05 08:00:25;;;;;;;1.80;1.43;;;7.10;99.90;;;;;;5076766;28;20197;-83
2024/02/05 08:03:13;;;;;;;2.07;1.20;;;7.10;99.90;;;;;;5068075;28;20279;-83
2024/02/05 08:06:19;;;;;;;3.23;1.20;;;7.10;99.90;;;;;;5102179;28;20553;-82
2024/02/05 08:09:06;;;;;;;2.23;1.10;;;7.00;99.90;;;;;;5090677;28;20571;-83
2024/02/05 08:11:54;;;;;;;1.37;1.23;;;7.10;99.90;;;;;;5077686;28;20590;-82
2024/02/05 08:14:41;;;;;;;1.33;1.10;;;7.10;99.90;;;;;;5093608;28;20202;-83
2024/02/05 08:17:28;;;;;;;2.30;1.20;;;7.20;99.90;;;;;;5092551;28;20199;-84
2024/02/05 08:20:16;;;;;;;1.50;1.20;;;7.40;99.90;;;;;;5077050;28;20192;-84
2024/02/05 08:23:04;;;;;;;1.40;1.20;;;7.40;99.90;;;;;;5075610;28;20278;-77
2024/02/05 08:25:53;;;;;;;1.30;1.10;;;7.40;99.90;;;;;;5088866;28;20588;-77
2024/02/05 08:28:41;;;;;;;2.80;1.40;;;7.50;99.90;;;;;;5074475;28;20246;-85
2024/02/05 08:31:29;;;;;;;1.73;1.30;;;7.50;99.90;;;;;;5074889;28;20287;-87
2024/02/05 08:34:17;;;;;;;4.27;1.20;;;7.50;99.90;;;;;;5074389;28;20193;-87
2024/02/05 08:37:04;;;;;;;2.13;1.00;;;7.40;99.90;;;;;;5074556;28;20221;-84
2024/02/05 08:39:52;;;;;;;1.10;1.00;;;7.40;99.90;;;;;;5088667;28;20674;-84
2024/02/05 08:42:40;;;;;;;2.13;1.10;;;7.50;99.90;;;;;;5090345;28;20233;-85
2024/02/05 08:45:29;;;;;;;1.30;1.20;;;7.50;99.90;;;;;;5090284;28;20685;-87
2024/02/05 08:48:17;;;;;;;1.57;1.03;;;7.50;99.90;;;;;;5073006;28;20634;-76
2024/02/05 08:51:04;;;;;;;1.87;1.10;;;7.60;99.90;;;;;;5087688;28;20240;-75
2024/02/05 08:53:52;;;;;;;1.27;0.70;;;7.60;99.90;;;;;;5088964;28;20192;-77
2024/02/05 08:56:39;;;;;;;2.03;1.00;;;7.70;99.90;;;;;;5088313;28;20213;-78
2024/02/05 08:59:27;;;;;;;1.20;0.90;;;7.80;99.90;;;;;;5088265;28;20194;-76
2024/02/05 09:02:15;;;;;;;2.20;0.87;;;7.90;99.90;;;;;;5073697;28;20222;-76
2024/02/05 09:05:04;;;;;;;1.80;1.00;;;7.80;99.90;;;;;;5087315;28;20233;-76
2024/02/05 09:07:51;;;;;;;2.87;1.30;;;7.90;99.90;;;;;;5072962;28;20190;-76
2024/02/05 09:10:39;;;;;;;3.63;1.20;;;7.90;99.90;;;;;;5086927;28;20310;-76
2024/02/05 09:13:27;;;;;;;3.40;1.47;;;7.80;99.90;;;;;;5088391;28;20690;-76
2024/02/05 09:16:14;;;;;;;2.10;0.90;;;7.80;99.90;;;;;;5081323;28;20220;-75
2024/02/05 09:19:01;;;;;;;2.07;1.10;;;7.90;99.90;;;;;;5074399;28;20217;-76
2024/02/05 09:21:49;;;;;;;1.37;1.00;;;7.70;99.90;;;;;;5074963;28;20204;-76
2024/02/05 09:24:37;;;;;;;1.73;1.00;;;7.60;99.90;;;;;;5074309;28;20215;-76
2024/02/05 09:27:24;;;;;;;3.87;1.30;;;7.60;99.90;;;;;;5074807;28;20217;-78
2024/02/05 09:30:12;;;;;;;2.47;1.10;;;7.60;99.90;;;;;;5059972;28;20193;-77
2024/02/05 09:32:59;;;;;;;2.07;1.20;;;7.60;99.90;;;;;;5058808;28;20196;-77
2024/02/05 09:35:47;;;;;;;1.20;1.10;;;7.60;99.90;;;;;;5073774;28;20208;-77
2024/02/05 09:38:34;;;;;;;1.97;1.10;;;7.60;99.90;;;;;;5074103;28;20197;-77
2024/02/05 09:41:29;;;;;;;4.87;1.50;;;7.80;99.90;;;;;;5075130;28;20678;-77
2024/02/05 09:44:17;;;;;;;2.47;1.40;;;7.90;99.90;;;;;;5073264;28;20668;-77
2024/02/05 09:47:07;;;;;;;2.20;1.40;;;7.90;99.90;;;;;;5073864;28;20628;-78
2024/02/05 09:49:58;;;;;;;4.53;1.60;;;7.80;99.90;;;;;;5058998;28;20274;-76
2024/02/05 09:52:47;;;;;;;2.10;1.47;;;7.80;99.90;;;;;;5073102;28;20408;-78
2024/02/05 09:55:35;;;;;;;1.70;1.37;;;7.90;99.90;;;;;;5073197;28;20664;-77
2024/02/05 09:58:22;;;;;;;2.03;1.37;;;8.00;99.90;;;;;;5073045;28;20299;-77
2024/02/05 10:01:12;;;;;;;1.67;1.27;;;8.10;99.90;;;;;;5059176;28;20197;-77
2024/02/05 10:04:01;;;;;;;3.50;1.60;;;8.20;99.90;;;;;;5059412;28;20755;-84
2024/02/05 10:06:52;;;;;;;1.67;1.10;;;8.10;99.90;;;;;;5074313;28;20291;-83
2024/02/05 10:09:41;;;;;;;2.27;1.70;;;8.10;99.90;;;;;;5060896;28;20795;-81
2024/02/05 10:12:33;;;;;;;2.60;1.47;;;8.00;99.90;;;;;;5059705;28;20338;-79
2024/02/05 10:15:20;;;;;;;3.00;1.50;;;7.90;99.90;;;;;;5073699;28;20614;-78
2024/02/05 10:18:10;;;;;;;2.47;1.50;;;7.50;99.90;;;;;;5059762;28;20275;-79
2024/02/05 10:21:00;;;;;;;2.37;1.43;;;7.30;99.90;;;;;;5073268;28;20205;-79
2024/02/05 10:23:54;;;;;;;3.17;1.50;;;7.30;99.90;;;;;;5073951;28;20195;-79
2024/02/05 10:26:42;;;;;;;2.40;1.50;;;7.10;99.90;;;;;;5073959;28;20225;-81
2024/02/05 10:29:29;;;;;;;2.67;1.40;;;7.30;99.90;;;;;;5073181;28;20202;-81
2024/02/05 10:32:24;;;;;;;2.60;1.50;;;7.40;99.90;;;;;;5059001;28;20572;-80
2024/02/05 10:35:15;;;;;;;1.97;1.27;;;7.50;99.90;;;;;;5058849;28;20670;-78
2024/02/05 10:38:08;;;;;;;5.33;1.30;;;7.70;99.90;;;;;;5073388;28;20197;-81
2024/02/05 10:40:56;;;;;;;2.87;1.63;;;7.80;99.90;;;;;;5071929;28;20204;-81
2024/02/05 10:43:44;;;;;;;4.40;1.80;;;8.00;99.90;;;;;;5058238;28;20196;-77
2024/02/05 10:46:32;;;;;;;3.60;1.37;;;8.10;99.90;;;;;;5072808;28;20217;-79
2024/02/05 10:49:19;;;;;;;3.40;1.53;;;8.00;99.90;;;;;;5072109;28;20288;-79
2024/02/05 10:52:07;;;;;;;2.70;1.40;;;8.00;99.90;;;;;;5073268;28;20198;-78
2024/02/05 10:55:02;;;;;;;2.80;1.40;;;8.10;99.90;;;;;;5073916;28;20187;-79
2024/02/05 10:57:53;;;;;;;4.90;1.80;;;8.10;99.90;;;;;;5072254;28;20213;-79
2024/02/05 11:00:44;;;;;;;2.87;1.47;;;8.10;99.90;;;;;;5071803;28;20205;-78
2024/02/05 11:03:37;;;;;;;2.87;1.77;;;8.10;99.90;;;;;;5044546;28;20191;-77
2024/02/05 11:06:25;;;;;;;2.47;1.20;;;8.10;99.90;;;;;;5057436;28;20259;-78
2024/02/05 11:09:14;;;;;;;2.60;1.10;;;8.10;99.90;;;;;;5071096;28;20569;-78
2024/02/05 11:12:06;;;;;;;3.03;1.30;;;7.90;99.90;;;;;;5071660;28;20688;-77
2024/02/05 11:15:00;;;;;;;3.67;1.20;;;8.10;99.90;;;;;;5072203;28;20435;-77
2024/02/05 11:17:47;;;;;;;3.40;1.40;;;8.00;99.90;;;;;;5072723;28;20606;-77
2024/02/05 11:20:36;;;;;;;2.87;1.30;;;7.90;99.90;;;;;;5071737;28;20260;-77
2024/02/05 11:23:25;;;;;;;2.80;1.37;;;7.80;99.90;;;;;;5057689;28;20200;-79
2024/02/05 11:26:13;;;;;;;6.00;1.90;;;7.80;99.90;;;;;;5070644;28;20219;-78
2024/02/05 11:29:00;;;;;;;3.57;1.40;;;7.80;99.90;;;;;;5071345;28;20242;-79
2024/02/05 11:31:48;;;;;;;2.70;1.40;;;7.80;99.90;;;;;;5057637;28;20201;-77
2024/02/05 11:34:37;;;;;;;1.87;1.10;;;7.80;99.90;;;;;;5071717;28;20278;-78
2024/02/05 11:37:27;;;;;;;3.00;1.23;;;7.90;99.90;;;;;;5057131;28;20672;-78
2024/02/05 11:40:22;;;;;;;4.20;1.13;;;7.90;99.90;;;;;;5056764;28;20208;-77
2024/02/05 11:43:10;;;;;;;2.17;0.73;;;7.90;99.90;;;;;;5058040;28;20222;-78
2024/02/05 11:45:58;;;;;;;1.73;1.20;;;8.00;99.90;;;;;;5070663;28;20232;-78
2024/02/05 11:48:46;;;;;;;2.90;0.90;;;7.90;99.90;;;;;;5070414;28;20207;-79
2024/02/05 11:51:38;;;;;;;2.90;1.10;;;7.90;99.90;;;;;;5070478;28;20198;-79
2024/02/05 11:54:30;;;;;;;3.00;1.13;;;7.90;99.90;;;;;;5071540;28;20272;-79
2024/02/05 11:57:17;;;;;;;1.40;0.80;;;7.90;99.90;;;;;;5071907;28;20747;-79
2024/02/05 12:00:05;;;;;;;1.93;1.17;;;7.90;99.90;;;;;;5055449;28;20197;-79
2024/02/05 12:02:54;;;;;;;6.90;1.40;;;8.00;99.90;;;;;;5057788;28;20270;-80
2024/02/05 12:05:41;;;;;;;4.73;1.20;;;8.10;99.90;;;;;;5071331;28;20246;-81
2024/02/05 12:08:30;;;;;;;3.00;1.50;;;8.20;99.90;;;;;;5057322;28;20207;-80
2024/02/05 12:11:18;;;;;;;2.70;1.20;;;8.40;99.90;;;;;;5071851;28;20266;-80
2024/02/05 12:14:07;;;;;;;2.80;1.20;;;8.60;99.90;;;;;;5071164;28;20193;-80
2024/02/05 12:16:55;;;;;;;3.00;1.43;;;8.80;99.90;;;;;;5056092;28;20660;-80
2024/02/05 12:19:42;;;;;;;3.23;1.50;;;8.80;99.90;;;;;;5070674;28;20192;-80
2024/02/05 12:22:30;;;;;;;4.83;1.53;;;8.80;99.90;;;;;;5071516;28;20755;-80
2024/02/05 12:25:18;;;;;;;4.57;1.60;;;8.70;99.90;;;;;;5070709;28;20221;-80
2024/02/05 12:28:25;;;;;;;3.03;1.70;;;8.50;99.90;;;;;;5071183;28;20217;-81
2024/02/05 12:31:18;;;;;;;4.37;1.70;;;8.30;99.90;;;;;;5071098;28;20284;-78
2024/02/05 12:34:10;;;;;;;4.60;1.77;;;8.50;99.90;;;;;;5071815;28;20200;-80
2024/02/05 12:36:58;;;;;;;5.20;1.90;;;8.40;99.90;;;;;;5070560;28;20655;-81
2024/02/05 12:39:51;;;;;;;3.03;1.70;;;8.30;99.90;;;;;;5071176;28;20676;-81
2024/02/05 12:42:38;;;;;;;3.20;1.80;;;8.30;99.90;;;;;;5072258;28;20216;-80
2024/02/05 12:45:26;;;;;;;5.77;2.00;;;8.30;99.90;;;;;;5070813;28;20221;-82
2024/02/05 12:48:14;;;;;;;4.00;2.20;;;8.50;99.90;;;;;;5071438;28;20193;-83
2024/02/05 12:51:01;;;;;;;4.47;2.10;;;8.30;99.90;;;;;;5057651;28;20674;-84
2024/02/05 12:53:50;;;;;;;6.33;2.17;;;8.30;99.90;;;;;;5075021;28;20253;-82
2024/02/05 12:56:38;;;;;;;2.80;1.60;;;8.20;99.90;;;;;;5060201;28;20302;-83
2024/02/05 12:59:25;;;;;;;5.57;1.80;;;8.20;99.90;;;;;;5076131;28;20277;-84
2024/02/05 13:02:16;;;;;;;3.70;1.70;;;8.20;99.90;;;;;;5075018;28;20336;-84
2024/02/05 13:05:04;;;;;;;4.10;1.50;;;8.10;99.90;;;;;;5059319;28;20228;-85
2024/02/05 13:07:51;;;;;;;6.40;1.80;;;8.10;99.90;;;;;;5060292;28;20250;-84
2024/02/05 13:10:43;;;;;;;5.97;1.90;;;8.00;99.90;;;;;;5074637;28;20203;-84
2024/02/05 13:13:31;;;;;;;6.03;1.70;;;8.00;99.90;;;;;;5073796;28;20672;-85
2024/02/05 13:16:19;;;;;;;4.60;1.53;;;7.90;99.90;;;;;;5075190;28;20198;-83
2024/02/05 13:19:06;;;;;;;5.70;1.57;;;7.90;99.90;;;;;;5073345;28;20193;-85
2024/02/05 13:21:53;;;;;;;3.87;1.60;;;7.90;99.90;;;;;;5061298;28;20189;-84
2024/02/05 13:24:41;;;;;;;4.27;1.47;;;7.90;99.90;;;;;;5077388;28;20600;-85
2024/02/05 13:27:28;;;;;;;4.03;1.50;;;7.80;99.90;;;;;;5076657;28;20216;-82
2024/02/05 13:30:16;;;;;;;3.13;1.37;;;7.70;99.90;;;;;;5075306;28;20331;-81
2024/02/05 13:33:04;;;;;;;4.70;1.87;;;7.70;99.90;;;;;;5075561;28;20667;-83
2024/02/05 13:35:51;;;;;;;2.50;1.40;;;7.60;99.90;;;;;;5075353;28;20207;-83
2024/02/05 13:38:39;;;;;;;2.50;1.53;;;7.50;99.90;;;;;;5076029;28;20742;-83
2024/02/05 13:41:26;;;;;;;3.87;1.70;;;7.50;99.90;;;;;;5073139;28;20214;-83
2024/02/05 13:44:14;;;;;;;2.90;1.60;;;7.30;99.90;;;;;;5073783;28;20196;-83
2024/02/05 13:47:03;;;;;;;4.00;1.40;;;7.30;99.90;;;;;;5075510;28;20748;-85
2024/02/05 13:49:50;;;;;;;2.40;1.20;;;7.30;99.90;;;;;;5059588;28;20201;-84
2024/02/05 13:52:43;;;;;;;3.67;1.40;;;7.30;99.90;;;;;;5075043;28;20230;-84
2024/02/05 13:55:31;;;;;;;3.97;1.50;;;7.20;99.90;;;;;;5073838;28;20210;-84
2024/02/05 13:58:18;;;;;;;2.33;1.20;;;7.20;99.90;;;;;;5046156;28;20220;-81
2024/02/05 14:01:06;;;;;;;5.83;1.60;;;7.10;99.90;;;;;;5086893;28;20189;-82
2024/02/05 14:03:53;;;;;;;3.83;1.57;;;7.00;99.90;;;;;;5064300;28;20188;-82
2024/02/05 14:06:41;;;;;;;2.83;1.57;;;7.00;99.90;;;;;;5090211;28;20272;-84
2024/02/05 14:09:28;;;;;;;4.77;2.00;;;6.90;99.90;;;;;;5098495;28;20254;-83
2024/02/05 14:12:16;;;;;;;3.87;1.87;;;6.80;99.90;;;;;;5090002;28;20215;-82
2024/02/05 14:15:04;;;;;;;2.83;2.10;;;6.80;99.90;;;;;;5091191;28;20284;-82
2024/02/05 14:17:51;;;;;;;3.80;1.53;;;6.70;99.90;;;;;;5074828;28;20228;-86
2024/02/05 14:20:39;;;;;;;4.93;2.00;;;6.70;99.90;;;;;;5074089;28;20628;-86
2024/02/05 14:23:27;;;;;;;5.07;1.53;;;6.60;99.90;;;;;;5064719;28;20205;-86
2024/02/05 14:26:14;;;;;;;4.13;1.60;;;6.60;99.90;;;;;;5069267;28;20230;-85
2024/02/05 14:29:02;;;;;;;5.83;1.80;;;6.60;99.90;;;;;;5076877;28;20204;-88
2024/02/05 14:31:50;;;;;;;3.60;1.73;;;6.60;99.90;;;;;;5075678;28;20716;-85
2024/02/05 14:34:37;;;;;;;2.27;1.57;;;6.60;99.90;;;;;;5062073;28;20204;-86
2024/02/05 14:37:25;;;;;;;3.77;1.70;;;6.60;99.90;;;;;;5079920;28;20205;-84
2024/02/05 14:40:13;;;;;;;3.37;1.50;;;6.50;99.90;;;;;;5072486;28;20191;-87
2024/02/05 14:43:00;;;;;;;2.57;1.70;;;6.50;99.90;;;;;;5073672;28;20210;-86
2024/02/05 14:45:47;;;;;;;4.07;1.40;;;6.60;99.90;;;;;;5074217;28;20717;-85
2024/02/05 14:48:35;;;;;;;4.23;1.50;;;6.60;99.90;;;;;;5059384;28;20282;-86